KAZO/AZO METAR and TAF weather

Enter ICAO airport designator
Station Type Date Time Source
KAZO METAR 2018/04/26 14:53 UTC NOAA

KAZO 261453Z 00000KT 10SM CLR 11/00 A2995 RMK AO2 SLP147 T01110000 58002 $


Station Type Date Time Source
KAZO Decoded METAR 2018/04/26 14:53 UTC NOAA

KALAMAZOO/BATTLE CREEK AIRPORT, MI, United States (KAZO) 42-14N 085-33W 272M
Apr 26, 2018 - 10:53 AM EDT / 2018.04.26 1453 UTC
Wind: Calm:0
Visibility: 10 mile(s):0
Sky conditions: clear
Temperature: 52.0 F (11.1 C)
Dew Point: 32.0 F (0.0 C)
Relative Humidity: 46%
Pressure (altimeter): 29.95 in. Hg (1014 hPa)
Pressure tendency: 0.01 inches (0.2 hPa) lower than three hours ago
ob: KAZO 261453Z 00000KT 10SM CLR 11/00 A2995 RMK AO2 SLP147 T01110000 58002
cycle: 15

Station Type Date Time Source
KAZO TAF 2018/04/26 12:42 UTC NOAA

TAF KAZO 261140Z 2612/2712 34004KT P6SM SKC
FM261600 28006KT P6SM SCT250
FM271000 26005KT P6SM VCSH SCT035 BKN080


Example: see airport list